Flight APN100

  • Submitted By: Krzysztof H. Blaszkow
  • Departure Airport: Gdansk im. Lecha Walesy (EPGD)
  • Arrival Airport: Warszawa Chopina (EPWA)
  • Aircraft: ATR 72-500 (SP-RYD)
  • Flight Time: 01.27.17
  • Date Submitted: 02/15/2017
  • Status: Accepted
Flight Details
Gross Revenue:
(72 load / € 55.00 per unit
€ 3,960.00
Fuel Cost:
(680.842 fuel used @ 0.45 / unit)
€ 306.38

Additional Log Information:

View Log

[20:19] - Flight 1 ATR 72-500 House Livery
[20:19] - Flight APN100 is ready to depart EPGD with a final destination of EPWA.
[20:19] - Parking Brake Applied
[20:19] - Beacon Light ON
[20:19] - Boarding
[20:19] - ADF1 - 305.0
[20:19] - ADF2 - 371.0
[20:19] - NAV1 - 116.10
[20:19] - NAV2 - 110.30
[20:19] - COM1 - 122.80
[20:19] - COM2 - 125.27
[20:19] - Transponder - 4532
[20:23] - Transponder - 4532
[20:25] - Navigation Lights ON 6AGL
[20:25] - Logo Lights ON 6AGL
[20:25] - Wing Lights ON 6AGL
[20:25] - Taxi Lights ON 6AGL
[20:25] - Parking Brake Released
[20:26] - Pushing Back from the gate
[20:26] - Engine 1 Started
[20:27] - Engine 2 Started
[20:29] - Taxiing to Runway
[20:35] - Landing Lights ON 6AGL
[20:35] - Strobe Lights ON 6AGL
[20:35] - Taxi Lights OFF 6AGL
[20:43] - Taking Off with 72 passengers on board
[20:43] - Flaps to position 1
[20:43] - Take off at 128kts, with a pitch of 2deg and 4365lbs of fuel on board
[20:43] - Wind Heading 194 | Wind Speed 3kts | Temperature 0 deg C
[20:43] - METAR Departure: EPGD 152030Z VRB01KT 4000 BR NSC 01/M02 Q1032

[20:43] - Flaps to position 0 at 571ft and 137kts
[20:44] - Gear up at 223AGL
[20:44] - Climbing to TOC
[20:49] - Landing Lights OFF 9872AGL
[20:50] - AutoPilot Engaged at 10420AGL
[21:06] - NAV1 - 110.30
[21:06] - NAV1 - 113.40
[21:24] - Landing Lights ON 10452AGL
[21:26] - NAV1 - 110.30
[21:35] - Flaps to position 1 at 2999ft and 171kts
[21:39] - Gear down at 1965AGL
[21:41] - AutoPilot Disengaged at 282AGL
[21:41] - AutoPilot Engaged at 243AGL
[21:41] - AutoPilot Disengaged at 49AGL
[21:41] - Landed at -278fpm. With 3005lbs of fuel onboard and a pitch angle of 0deg.
[21:41] - Wind Heading 123 | Wind Speed 2kts | Temperature -3 deg C
[21:41] - METAR Arrival: EPWA 152130Z 11005KT 4500 BR NSC M04/M05 Q1034 NOSIG

[21:41] - Flaps to position 0
[21:42] - Taxiing to Gate
[21:43] - Landing Lights OFF 6AGL
[21:43] - Taxi Lights ON 6AGL
[21:43] - Strobe Lights OFF 6AGL
[21:45] - Parking Brake Applied
[21:45] - Arrived safely at EPWA. We hope you enjoyed your flight!
[21:45] - Engine 1 Stopped
[21:45] - Engine 2 Stopped
[21:45] - Taxi Lights OFF 6AGL
[21:46] - Navigation Lights OFF 6AGL
[21:46] - Wing Lights OFF 6AGL
[21:46] - Logo Lights OFF 6AGL
[21:47] - Flight 1 ATR 72-500 House Livery
[21:47] - MaxSim Rate: 1x
[21:47] - SiouxAcars ver: 1.0.1.2

Route Map